Calera, Mexico

1:01 PM CST on February 25, 2017 (GMT -0600)
Gen Leobardo C Ruiz International | | Change Station

Elev 7021 ft 22.90 °N, 102.68 °W | Updated 11 minutes ago

Clear
Clear
73 °F
Feels Like 73 °F
N
23
Wind Variable Wind from SSW

Today
High -- | Low -- °F
--% Chance of Precip.
Yesterday
High -- | Low -- °F
Precip. -- in
Pressure 30.20 in
Visibility 10.0 miles
Clouds Clear
Dew Point 21 °F
Humidity 14%
Rainfall 0.00 in
Snow Depth Not available.
7:15 AM 6:52 PM
Waning Crescent, 1% visible
METAR MMZC 251850Z 20020KT 10SM SKC 23/M06 A3020
Pressure 30.20 in
Visibility 10.0 miles
Clouds Clear
Dew Point 21 °F
Humidity 14%
Rainfall 0.00 in
Snow Depth Not available.
7:15 AM 6:52 PM
Waning Crescent, 1% visible
METAR MMZC 251850Z 20020KT 10SM SKC 23/M06 A3020

Get Your Daily Forecast Email!

Thanks for signing up!

Be on the lookout for a verification email in your inbox.

You'll start receiving the daily forecast at 8 AM.

×

10-Day Weather Forecast

No radar image for this location.
×

Almanac

Astronomy

Feb. 25, 2017 Rise Set
Actual Time
Civil Twilight
Nautical Twilight
Astronomical Twilight
Moon
Length of Visible Light
Length of Day
Tomorrow will be .
, % of the Moon is Illuminated

Today's Extremes

Country Highs Country Lows

Community

WunderPhotos

Upload Photos

1,962,540 photos uploaded!

WunderBlog® & News

Nearby

Air Quality

  Air Quality AQ Index Pollutant
Not available.

Snow Depth

Station Depth Elevation

Earthquake Activity

City Distance Mag. Time & Date
Minimum magnitude displayed is 2.5.

Coastal Water Temperatures

Place Temperature

Stations

Nearby Weather Stations

Station Location Temp. Windchill Dew Point Humidity Wind Precip. Elev Updated Type